Time;durP1;ratioP1;P1;durP2;ratioP2;P2;SDS_P1;SDS_P2;PMS_P1;PMS_P2;Temp;Humidity;BMP_temperature;BMP_pressure;BME280_temperature;BME280_humidity;BME280_pressure;Samples;Min_cycle;Max_cycle;Signal;HPM_P1;HPM_P2
2023/11/11 00:00:29;;;;;;;10.93;5.43;;;;;;;;;;12825596;22;20019;-73
2023/11/11 00:05:26;;;;;;;9.63;5.55;;;;;;;;;;12883181;22;20438;-72
2023/11/11 00:10:22;;;;;;;7.00;6.30;;;;;;;;;;12884107;22;20027;-73
2023/11/11 00:15:18;;;;;;;9.18;5.55;;;;;;;;;;12883088;22;20023;-73
2023/11/11 00:20:16;;;;;;;8.40;6.03;;;;;;;;;;12855256;22;20106;-73
2023/11/11 00:25:16;;;;;;;9.50;6.75;;;;;;;;;;12883722;22;20042;-73
2023/11/11 00:30:13;;;;;;;8.05;6.20;;;;;;;;;;12884368;22;20027;-73
2023/11/11 00:35:11;;;;;;;6.97;6.28;;;;;;;;;;12884682;22;20037;-73
2023/11/11 00:40:08;;;;;;;9.07;6.57;;;;;;;;;;12887479;22;20015;-73
2023/11/11 00:45:06;;;;;;;8.68;6.90;;;;;;;;;;12888050;22;20019;-73
2023/11/11 00:50:05;;;;;;;13.38;7.22;;;;;;;;;;12887843;22;20014;-72
2023/11/11 00:55:01;;;;;;;8.25;7.22;;;;;;;;;;12887783;22;20023;-73
2023/11/11 00:59:57;;;;;;;10.73;8.13;;;;;;;;;;12886487;22;20053;-73
2023/11/11 01:04:53;;;;;;;10.20;7.75;;;;;;;;;;12886851;22;20023;-73
2023/11/11 01:10:22;;;;;;;8.25;7.45;;;;;;;;;;12833988;22;20046;-72
2023/11/11 01:15:18;;;;;;;11.73;8.05;;;;;;;;;;12806607;22;20026;-73
2023/11/11 01:20:15;;;;;;;10.90;7.70;;;;;;;;;;12873841;22;20023;-73
2023/11/11 01:25:12;;;;;;;11.65;8.50;;;;;;;;;;12859570;22;20048;-72
2023/11/11 01:30:09;;;;;;;11.55;8.35;;;;;;;;;;12886898;22;20029;-72
2023/11/11 01:35:06;;;;;;;10.60;8.35;;;;;;;;;;12887663;22;20380;-73
2023/11/11 01:56:08;;;;;;;11.80;8.10;;;;;;;;;;12791447;22;20495;-72
2023/11/11 02:01:04;;;;;;;8.32;7.43;;;;;;;;;;12883470;22;20015;-72
2023/11/11 02:06:01;;;;;;;10.23;7.82;;;;;;;;;;12858328;22;20068;-73
2023/11/11 02:10:59;;;;;;;12.45;7.50;;;;;;;;;;12884105;22;20019;-72
2023/11/11 02:15:56;;;;;;;10.57;7.95;;;;;;;;;;12881748;22;20083;-73
2023/11/11 02:26:47;;;;;;;10.65;7.70;;;;;;;;;;12821589;22;20094;-74
2023/11/11 02:31:42;;;;;;;9.05;7.15;;;;;;;;;;12858759;22;20019;-74
2023/11/11 02:52:14;;;;;;;11.57;7.07;;;;;;;;;;12808718;22;20030;-73
2023/11/11 02:57:10;;;;;;;8.30;7.15;;;;;;;;;;12830324;22;20026;-73
2023/11/11 03:02:07;;;;;;;9.55;7.03;;;;;;;;;;12884230;22;20050;-73
2023/11/11 03:07:03;;;;;;;10.98;7.45;;;;;;;;;;12857615;22;20023;-73
2023/11/11 03:12:01;;;;;;;8.82;6.65;;;;;;;;;;12857013;22;20072;-73
2023/11/11 03:16:57;;;;;;;11.95;6.80;;;;;;;;;;12884806;22;20050;-74
2023/11/11 03:21:54;;;;;;;8.80;6.07;;;;;;;;;;12882436;22;20023;-73
2023/11/11 03:32:30;;;;;;;8.73;6.53;;;;;;;;;;12801874;22;20049;-74
2023/11/11 03:56:10;;;;;;;8.90;7.75;;;;;;;;;;12460429;23;20049;-74
2023/11/11 04:01:09;;;;;;;12.10;8.75;;;;;;;;;;12676884;23;20055;-73
2023/11/11 04:06:06;;;;;;;12.20;8.27;;;;;;;;;;12687917;23;20035;-73
2023/11/11 04:11:06;;;;;;;11.57;7.72;;;;;;;;;;12688148;23;20053;-73
2023/11/11 04:16:03;;;;;;;11.95;8.45;;;;;;;;;;12693006;23;20020;-73
2023/11/11 04:21:00;;;;;;;9.57;7.55;;;;;;;;;;12692562;23;20099;-73
2023/11/11 04:25:57;;;;;;;15.77;7.47;;;;;;;;;;12826128;22;20025;-73
2023/11/11 04:30:53;;;;;;;12.07;7.78;;;;;;;;;;12820992;22;20024;-73
2023/11/11 04:35:51;;;;;;;10.23;7.47;;;;;;;;;;12824581;22;20019;-73
2023/11/11 04:41:26;;;;;;;8.88;7.50;;;;;;;;;;12800215;22;20026;-73
2023/11/11 04:46:22;;;;;;;9.10;6.90;;;;;;;;;;12824712;22;20561;-73
2023/11/11 04:51:21;;;;;;;8.93;7.22;;;;;;;;;;12774895;22;20019;-73
2023/11/11 04:56:19;;;;;;;10.40;7.35;;;;;;;;;;12824579;22;20106;-73
2023/11/11 05:01:16;;;;;;;7.72;6.63;;;;;;;;;;12822906;22;20027;-73
2023/11/11 05:06:12;;;;;;;9.73;7.00;;;;;;;;;;12824907;22;20027;-73
2023/11/11 05:11:08;;;;;;;10.82;7.25;;;;;;;;;;12823457;22;20072;-73
2023/11/11 05:16:13;;;;;;;11.52;7.15;;;;;;;;;;12824264;22;20752;-73
2023/11/11 05:21:11;;;;;;;11.82;6.82;;;;;;;;;;12803043;22;20030;-73
2023/11/11 05:26:07;;;;;;;13.10;6.78;;;;;;;;;;12824677;22;20023;-73
2023/11/11 05:31:03;;;;;;;8.05;7.25;;;;;;;;;;12823256;22;20391;-73
2023/11/11 05:36:00;;;;;;;8.15;7.35;;;;;;;;;;12823271;22;20028;-73
2023/11/11 05:40:56;;;;;;;8.00;6.95;;;;;;;;;;12770970;22;20053;-73
2023/11/11 05:45:52;;;;;;;10.63;7.65;;;;;;;;;;12817961;22;20367;-73
2023/11/11 05:56:53;;;;;;;9.80;7.00;;;;;;;;;;12809089;22;20452;-73
2023/11/11 06:01:49;;;;;;;11.57;7.40;;;;;;;;;;12886723;22;20080;-73
2023/11/11 06:37:53;;;;;;;;;;;;;;;;;;;;;
2023/11/11 06:43:17;;;;;;;;;;;;;;;;;;;;;
2023/11/11 07:25:00;;;;;;;8.70;7.47;;;;;;;;;;12731938;22;20031;-74
2023/11/11 07:29:57;;;;;;;11.10;7.82;;;;;;;;;;12802083;22;20415;-74
2023/11/11 07:34:54;;;;;;;13.55;8.48;;;;;;;;;;12820080;22;20554;-74
2023/11/11 07:51:04;;;;;;;9.82;7.85;;;;;;;;;;12733831;22;20020;-73
2023/11/11 07:56:02;;;;;;;12.15;8.30;;;;;;;;;;12756259;22;20027;-73
2023/11/11 08:01:03;;;;;;;11.63;8.63;;;;;;;;;;12755064;22;20024;-74
2023/11/11 08:06:00;;;;;;;10.32;8.85;;;;;;;;;;12755362;22;20027;-74
2023/11/11 08:10:56;;;;;;;12.45;9.90;;;;;;;;;;12755282;22;20039;-74
2023/11/11 08:15:53;;;;;;;12.10;9.45;;;;;;;;;;12755488;22;20019;-73
2023/11/11 08:20:50;;;;;;;14.63;10.70;;;;;;;;;;12754754;22;20024;-72
2023/11/11 08:25:46;;;;;;;14.93;10.52;;;;;;;;;;12806932;22;20019;-73
2023/11/11 08:31:38;;;;;;;;;;;;;;;;;;;;;
2023/11/11 08:55:10;;;;;;;17.88;13.55;;;;;;;;;;12443803;23;20088;-74
2023/11/11 09:00:08;;;;;;;22.08;14.32;;;;;;;;;;12687592;22;20020;-74
2023/11/11 09:05:05;;;;;;;20.20;14.10;;;;;;;;;;12759995;22;20019;-73
2023/11/11 09:10:03;;;;;;;23.98;14.70;;;;;;;;;;12759452;22;20023;-72
2023/11/11 09:15:00;;;;;;;19.40;15.60;;;;;;;;;;12757618;22;20106;-74
2023/11/11 09:19:56;;;;;;;20.75;13.82;;;;;;;;;;12759396;22;20030;-73
2023/11/11 09:24:55;;;;;;;25.55;14.73;;;;;;;;;;12758572;22;20023;-73
2023/11/11 09:29:51;;;;;;;19.98;14.77;;;;;;;;;;12757192;22;20024;-73
2023/11/11 09:34:48;;;;;;;21.05;15.50;;;;;;;;;;12751985;22;20111;-73
2023/11/11 09:40:13;;;;;;;27.13;18.13;;;;;;;;;;12785594;22;20584;-73
2023/11/11 09:45:12;;;;;;;19.75;15.73;;;;;;;;;;12799604;22;20023;-73
2023/11/11 09:50:31;;;;;;;22.38;17.40;;;;;;;;;;12771095;22;20034;-73
2023/11/11 09:55:29;;;;;;;22.73;17.77;;;;;;;;;;12854870;22;20022;-73
2023/11/11 10:01:17;;;;;;;24.58;16.58;;;;;;;;;;12822642;22;20022;-73
2023/11/11 10:07:18;;;;;;;;;;;;;;;;;;;;;
2023/11/11 10:30:05;;;;;;;18.67;13.20;;;;;;;;;;12673498;23;20016;-73
2023/11/11 10:58:43;;;;;;;16.55;14.43;;;;;;;;;;12777787;22;20023;-73
2023/11/11 11:49:04;;;;;;;10.43;7.88;;;;;;;;;;12833973;22;20023;-74
2023/11/11 11:54:01;;;;;;;14.05;8.38;;;;;;;;;;12881244;22;20023;-73
2023/11/11 11:59:00;;;;;;;12.27;8.15;;;;;;;;;;12883655;22;20019;-74
2023/11/11 12:03:57;;;;;;;10.25;6.72;;;;;;;;;;12880744;22;20399;-75
2023/11/11 12:09:00;;;;;;;7.82;5.95;;;;;;;;;;12883575;22;20468;-73
2023/11/11 12:14:03;;;;;;;7.72;6.53;;;;;;;;;;12880863;22;20030;-73
2023/11/11 12:25:10;;;;;;;9.10;6.20;;;;;;;;;;12678772;22;20039;-73
2023/11/11 12:41:14;;;;;;;6.30;4.35;;;;;;;;;;12819446;22;20023;-73
2023/11/11 12:46:16;;;;;;;6.05;4.97;;;;;;;;;;12825233;22;20015;-73
2023/11/11 12:51:31;;;;;;;7.38;4.32;;;;;;;;;;12825440;22;20098;-73
2023/11/11 12:56:27;;;;;;;6.32;4.45;;;;;;;;;;12823743;22;20024;-73
2023/11/11 13:01:23;;;;;;;6.05;4.40;;;;;;;;;;12824009;22;20024;-73
2023/11/11 13:06:29;;;;;;;7.03;3.45;;;;;;;;;;12823656;22;20030;-73
2023/11/11 13:11:26;;;;;;;4.70;3.67;;;;;;;;;;12822477;22;20085;-73
2023/11/11 13:16:22;;;;;;;3.65;3.35;;;;;;;;;;12823650;22;20024;-73
2023/11/11 13:26:30;;;;;;;4.05;3.30;;;;;;;;;;12823135;22;20043;-73
2023/11/11 13:36:40;;;;;;;4.05;3.58;;;;;;;;;;12755119;22;20024;-72
2023/11/11 13:41:38;;;;;;;7.95;3.60;;;;;;;;;;12698573;22;20362;-72
2023/11/11 13:46:36;;;;;;;3.50;3.20;;;;;;;;;;12698275;22;20032;-72
2023/11/11 14:03:07;;;;;;;4.68;4.30;;;;;;;;;;12793934;22;20022;-73
2023/11/11 14:34:27;;;;;;;4.00;3.60;;;;;;;;;;12818092;22;20617;-72
2023/11/11 14:39:23;;;;;;;4.70;3.85;;;;;;;;;;12854435;22;20026;-72
2023/11/11 14:44:20;;;;;;;4.70;4.00;;;;;;;;;;12884767;22;20026;-73
2023/11/11 14:49:17;;;;;;;4.97;3.63;;;;;;;;;;12883538;22;20027;-72
2023/11/11 14:54:13;;;;;;;3.65;3.30;;;;;;;;;;12878330;22;20406;-72
2023/11/11 14:59:24;;;;;;;3.60;3.30;;;;;;;;;;12851619;22;20019;-72
2023/11/11 15:04:21;;;;;;;3.50;3.20;;;;;;;;;;12818289;22;20031;-72
2023/11/11 15:14:49;;;;;;;3.70;3.28;;;;;;;;;;12816794;22;20015;-72
2023/11/11 15:25:05;;;;;;;4.13;3.72;;;;;;;;;;12806515;22;20023;-73
2023/11/11 15:36:03;;;;;;;3.80;3.50;;;;;;;;;;12808786;22;20019;-72
2023/11/11 16:02:49;;;;;;;4.40;4.00;;;;;;;;;;12443197;23;20022;-73
2023/11/11 16:35:56;;;;;;;5.25;4.38;;;;;;;;;;12828742;22;20014;-73
2023/11/11 16:41:39;;;;;;;4.20;3.83;;;;;;;;;;12799528;22;20132;-73
2023/11/11 16:52:12;;;;;;;4.70;4.20;;;;;;;;;;12811010;22;20019;-73
2023/11/11 17:42:29;;;;;;;6.85;5.72;;;;;;;;;;12885579;22;20027;-74
2023/11/11 18:04:04;;;;;;;7.40;6.70;;;;;;;;;;12750509;22;20027;-73
2023/11/11 18:09:01;;;;;;;11.25;7.45;;;;;;;;;;12850004;22;20464;-73
2023/11/11 18:13:58;;;;;;;14.95;7.78;;;;;;;;;;12884144;22;20019;-73
2023/11/11 18:18:54;;;;;;;9.00;7.88;;;;;;;;;;12884895;22;20110;-73
2023/11/11 18:23:54;;;;;;;8.73;7.75;;;;;;;;;;12885300;22;20022;-75
2023/11/11 18:34:47;;;;;;;8.65;7.50;;;;;;;;;;12821210;22;20019;-72
2023/11/11 18:40:13;;;;;;;8.65;7.75;;;;;;;;;;12797753;22;20394;-72
2023/11/11 18:45:09;;;;;;;8.70;7.80;;;;;;;;;;12805354;22;20053;-72
2023/11/11 18:55:29;;;;;;;8.65;7.82;;;;;;;;;;12818120;22;20019;-73
2023/11/11 19:00:25;;;;;;;9.20;8.30;;;;;;;;;;12821235;22;20050;-73
2023/11/11 19:05:24;;;;;;;9.10;7.85;;;;;;;;;;12815170;22;20034;-74
2023/11/11 19:59:08;;;;;;;15.57;10.63;;;;;;;;;;12687859;22;20004;-73
2023/11/11 20:04:07;;;;;;;12.55;10.57;;;;;;;;;;12656427;22;20043;-73
2023/11/11 20:09:05;;;;;;;10.90;9.73;;;;;;;;;;12781224;22;20027;-73
2023/11/11 20:14:01;;;;;;;12.23;10.88;;;;;;;;;;12818938;22;20594;-73
2023/11/11 20:18:58;;;;;;;18.73;12.68;;;;;;;;;;12820097;22;20019;-73
2023/11/11 20:23:54;;;;;;;15.07;13.20;;;;;;;;;;12819056;22;20023;-73
2023/11/11 21:04:21;;;;;;;20.20;15.40;;;;;;;;;;12375014;23;20023;-73
2023/11/11 21:31:01;;;;;;;27.73;21.03;;;;;;;;;;12830458;22;20011;-72
2023/11/11 21:35:57;;;;;;;24.67;20.83;;;;;;;;;;12822461;22;20031;-75
2023/11/11 22:09:18;;;;;;;30.40;20.75;;;;;;;;;;12837181;22;20347;-72
2023/11/11 22:14:19;;;;;;;33.95;22.30;;;;;;;;;;12876627;22;20037;-73
2023/11/11 22:19:16;;;;;;;30.58;19.88;;;;;;;;;;12855089;22;20076;-74
2023/11/11 22:24:12;;;;;;;26.60;19.90;;;;;;;;;;12880944;22;20030;-74
2023/11/11 22:34:39;;;;;;;27.38;18.83;;;;;;;;;;12775841;22;20015;-73
2023/11/11 22:39:40;;;;;;;32.10;20.25;;;;;;;;;;12844811;22;20102;-74
2023/11/11 22:44:36;;;;;;;36.35;20.50;;;;;;;;;;12883917;22;20026;-74
2023/11/11 22:49:33;;;;;;;35.85;21.40;;;;;;;;;;12884755;22;20038;-74
2023/11/11 22:54:32;;;;;;;35.33;20.35;;;;;;;;;;12885400;22;20019;-74
2023/11/11 23:15:53;;;;;;;41.10;22.13;;;;;;;;;;12800109;22;20019;-73
2023/11/11 23:20:49;;;;;;;38.60;22.42;;;;;;;;;;12871701;22;20018;-73
2023/11/11 23:25:51;;;;;;;34.95;21.58;;;;;;;;;;12885550;22;20023;-73
2023/11/11 23:30:49;;;;;;;36.65;22.17;;;;;;;;;;12884891;22;20479;-73
2023/11/11 23:35:47;;;;;;;32.92;20.25;;;;;;;;;;12882889;22;20019;-73
